createdAt,value
2019-01-19T00:01:31.822Z,97.17
2019-01-19T00:04:37.487Z,97.57
2019-01-19T00:07:37.183Z,97.69
2019-01-19T00:10:47.542Z,97.42
2019-01-19T00:14:05.459Z,97.44
2019-01-19T00:17:24.271Z,97.29
2019-01-19T00:20:34.441Z,97.68
2019-01-19T00:23:38.729Z,98.05
2019-01-19T00:26:46.238Z,98.51
2019-01-19T00:33:19.434Z,98.52
2019-01-19T00:36:32.474Z,98.64
2019-01-19T00:39:37.374Z,98.75
2019-01-19T00:42:28.135Z,98.73
2019-01-19T00:45:37.323Z,98.51
2019-01-19T00:48:36.588Z,98.45
2019-01-19T00:51:45.658Z,98.42
2019-01-19T00:54:28.898Z,98.37
2019-01-19T00:57:37.626Z,98.32
2019-01-19T01:00:16.728Z,98.45
2019-01-19T01:03:23.000Z,98.53
2019-01-19T01:06:14.291Z,98.60
2019-01-19T01:09:25.495Z,98.67
2019-01-19T01:12:47.080Z,98.38
2019-01-19T01:15:47.701Z,98.23
2019-01-19T01:18:49.649Z,98.31
2019-01-19T01:21:56.923Z,98.68
2019-01-19T01:24:33.045Z,98.73
2019-01-19T01:27:23.847Z,98.62
2019-01-19T01:30:38.927Z,98.68
2019-01-19T01:33:46.188Z,98.71
2019-01-19T01:36:56.095Z,98.73
2019-01-19T01:40:01.021Z,98.88
2019-01-19T01:43:11.671Z,99.02
2019-01-19T01:46:20.501Z,98.82
2019-01-19T01:49:26.461Z,98.84
2019-01-19T01:52:30.718Z,98.74
2019-01-19T01:55:14.359Z,98.71
2019-01-19T01:58:05.451Z,98.63
2019-01-19T02:01:09.834Z,98.26
2019-01-19T02:04:07.829Z,98.20
2019-01-19T02:07:19.818Z,98.21
2019-01-19T02:10:47.859Z,98.56
2019-01-19T02:13:42.587Z,98.72
2019-01-19T02:17:07.655Z,98.79
2019-01-19T02:20:14.321Z,98.85
2019-01-19T02:23:04.674Z,98.86
2019-01-19T02:26:02.421Z,98.76
2019-01-19T02:29:07.854Z,98.79
2019-01-19T02:32:06.866Z,98.73
2019-01-19T02:35:16.041Z,98.91
2019-01-19T02:38:31.960Z,98.81
2019-01-19T02:41:35.111Z,98.89
2019-01-19T02:44:36.722Z,99.00
2019-01-19T02:47:30.503Z,99.22
2019-01-19T02:50:15.635Z,99.14
2019-01-19T02:52:51.186Z,99.12
2019-01-19T02:55:44.059Z,99.03
2019-01-19T02:59:02.452Z,98.98
2019-01-19T03:02:10.237Z,98.93
2019-01-19T03:04:59.496Z,98.99
2019-01-19T03:07:52.925Z,99.07
2019-01-19T03:10:53.588Z,99.13
2019-01-19T03:14:08.368Z,99.41
2019-01-19T03:17:27.206Z,99.45
2019-01-19T03:20:46.153Z,99.02
2019-01-19T03:24:04.933Z,98.66
2019-01-19T03:27:03.832Z,98.46
2019-01-19T03:30:22.679Z,97.87
2019-01-19T03:33:16.112Z,97.31
2019-01-19T03:36:17.200Z,97.24
2019-01-19T03:39:00.655Z,96.88
2019-01-19T03:42:04.302Z,96.04
2019-01-19T03:45:04.709Z,95.66
2019-01-19T03:48:02.014Z,95.82
2019-01-19T03:51:12.266Z,95.49
2019-01-19T03:53:48.279Z,95.17
2019-01-19T03:56:54.272Z,94.86
2019-01-19T03:59:37.971Z,94.77
2019-01-19T04:03:02.280Z,93.92
2019-01-19T04:05:59.752Z,94.03
2019-01-19T04:09:21.723Z,93.87
2019-01-19T04:12:17.053Z,93.84
2019-01-19T04:15:30.395Z,93.39
2019-01-19T04:18:12.588Z,93.32
2019-01-19T04:21:08.653Z,93.81
2019-01-19T04:23:38.530Z,93.39
2019-01-19T04:26:26.171Z,93.03
2019-01-19T04:28:55.738Z,93.48
2019-01-19T04:31:24.835Z,94.42
2019-01-19T04:33:54.197Z,94.46
2019-01-19T04:36:23.480Z,94.75
2019-01-19T04:38:52.734Z,94.70
2019-01-19T04:41:21.844Z,94.95
2019-01-19T04:43:50.935Z,95.01
2019-01-19T04:46:20.060Z,95.19
2019-01-19T04:48:49.417Z,94.98
2019-01-19T04:51:18.558Z,95.12
2019-01-19T04:53:47.595Z,95.69
2019-01-19T04:56:16.697Z,95.76
2019-01-19T04:58:45.787Z,96.15
2019-01-19T05:01:14.879Z,96.22
2019-01-19T05:03:43.951Z,95.91
2019-01-19T05:06:13.067Z,95.81
2019-01-19T05:08:42.144Z,95.62
2019-01-19T05:11:11.244Z,95.29
2019-01-19T05:13:40.326Z,95.55
2019-01-19T05:16:09.424Z,96.07
2019-01-19T05:18:38.497Z,95.83
2019-01-19T05:21:07.671Z,96.00
2019-01-19T05:23:37.024Z,95.91
2019-01-19T05:26:06.122Z,95.46
2019-01-19T05:28:35.196Z,95.38
2019-01-19T05:31:04.303Z,94.87
2019-01-19T05:33:33.392Z,94.62
2019-01-19T05:36:02.492Z,95.05
2019-01-19T05:38:31.575Z,95.38
2019-01-19T05:41:00.675Z,95.36
2019-01-19T05:43:29.752Z,95.62
2019-01-19T05:45:58.856Z,95.87
2019-01-19T05:48:27.966Z,96.47
2019-01-19T05:50:57.067Z,96.61
2019-01-19T05:53:26.191Z,96.38
2019-01-19T05:55:55.275Z,96.19
2019-01-19T05:58:24.368Z,96.48
2019-01-19T06:00:53.452Z,97.06
2019-01-19T06:03:22.564Z,97.48
2019-01-19T06:05:51.832Z,97.32
2019-01-19T06:08:20.938Z,97.34
2019-01-19T06:10:50.021Z,97.52
2019-01-19T06:13:19.133Z,97.49
2019-01-19T06:15:48.215Z,97.31
2019-01-19T06:18:17.324Z,97.31
2019-01-19T06:20:46.402Z,97.47
2019-01-19T06:23:15.504Z,97.33
2019-01-19T06:25:44.579Z,97.37
2019-01-19T06:28:13.684Z,97.12
2019-01-19T06:30:42.806Z,97.38
2019-01-19T06:33:11.901Z,97.46
2019-01-19T06:35:40.992Z,97.53
2019-01-19T06:38:10.091Z,97.52
2019-01-19T06:40:39.272Z,97.17
2019-01-19T06:43:08.703Z,97.07
2019-01-19T06:45:37.816Z,97.18
2019-01-19T06:48:07.019Z,96.96
2019-01-19T06:50:36.148Z,96.16
2019-01-19T06:53:05.258Z,95.71
2019-01-19T06:55:35.743Z,95.76
2019-01-19T06:58:04.849Z,95.88
2019-01-19T07:00:33.919Z,95.46
2019-01-19T07:03:03.019Z,95.12
2019-01-19T07:05:32.097Z,95.17
2019-01-19T07:08:01.198Z,95.13
2019-01-19T07:10:30.283Z,94.94
2019-01-19T07:12:59.400Z,94.02
2019-01-19T07:15:28.494Z,93.73
2019-01-19T07:17:57.602Z,94.08
2019-01-19T07:20:28.750Z,94.08
2019-01-19T07:22:57.946Z,94.02
2019-01-19T07:25:27.021Z,94.03
2019-01-19T07:27:56.137Z,93.81
2019-01-19T07:30:25.214Z,93.75
2019-01-19T07:32:54.289Z,93.51
2019-01-19T07:35:23.386Z,93.49
2019-01-19T07:37:52.455Z,93.33
2019-01-19T07:40:21.555Z,92.93
2019-01-19T07:42:55.279Z,92.12
2019-01-19T07:45:24.371Z,92.20
2019-01-19T07:47:53.549Z,91.99
2019-01-19T07:50:22.641Z,91.86
2019-01-19T07:52:51.718Z,91.03
2019-01-19T07:55:20.811Z,90.84
2019-01-19T07:57:49.882Z,90.34
2019-01-19T08:00:21.968Z,89.85
2019-01-19T08:02:51.059Z,89.87
2019-01-19T08:05:20.157Z,89.35
2019-01-19T08:07:49.239Z,89.22
2019-01-19T08:10:18.471Z,89.58
2019-01-19T08:12:47.562Z,89.64
2019-01-19T08:15:18.640Z,88.84
2019-01-19T08:17:47.715Z,88.55
2019-01-19T08:20:17.015Z,87.80
2019-01-19T08:22:46.096Z,85.75
2019-01-19T08:25:15.208Z,83.81
2019-01-19T08:27:44.281Z,81.73
2019-01-19T08:30:16.218Z,81.28
2019-01-19T08:32:45.298Z,78.87
2019-01-19T08:35:15.988Z,73.74
2019-01-19T08:37:45.066Z,71.03
2019-01-19T08:40:16.859Z,69.72
2019-01-19T08:42:47.555Z,64.89
2019-01-19T08:45:17.329Z,58.85
2019-01-19T08:47:46.437Z,58.17
2019-01-19T08:50:15.525Z,57.71
2019-01-19T08:52:44.605Z,58.32
2019-01-19T08:55:13.697Z,57.85
2019-01-19T08:57:42.769Z,58.61
2019-01-19T09:00:14.834Z,58.44
2019-01-19T09:02:43.921Z,61.06
2019-01-19T09:05:13.061Z,62.49
2019-01-19T09:07:42.146Z,63.17
2019-01-19T09:10:13.074Z,60.50
2019-01-19T09:12:42.145Z,59.81
2019-01-19T09:15:13.202Z,54.57
2019-01-19T09:17:42.384Z,51.17
2019-01-19T09:20:13.148Z,51.60
2019-01-19T09:22:42.255Z,46.76
2019-01-19T09:25:13.105Z,43.05
2019-01-19T09:27:42.189Z,40.49
2019-01-19T09:30:16.643Z,40.38
2019-01-19T09:32:45.902Z,39.96
2019-01-19T09:35:14.998Z,40.12
2019-01-19T09:37:44.165Z,40.09
2019-01-19T09:40:14.937Z,39.00
2019-01-19T09:42:44.274Z,37.55
2019-01-19T09:45:13.825Z,37.84
2019-01-19T09:47:42.941Z,35.86
2019-01-19T09:50:13.831Z,34.22
2019-01-19T09:52:42.991Z,34.78
2019-01-19T09:55:12.488Z,32.52
2019-01-19T09:57:41.588Z,30.74
2019-01-19T10:00:13.386Z,34.78
2019-01-19T10:02:42.486Z,36.03
2019-01-19T10:05:16.955Z,38.50
2019-01-19T10:07:48.602Z,39.10
2019-01-19T10:10:17.166Z,38.53
2019-01-19T10:12:46.266Z,40.13
2019-01-19T10:15:16.089Z,40.75
2019-01-19T10:17:45.193Z,41.03
2019-01-19T10:20:16.890Z,39.95
2019-01-19T10:22:46.008Z,40.75
2019-01-19T10:25:15.320Z,38.62
2019-01-19T10:27:44.507Z,38.79
2019-01-19T10:30:16.630Z,41.22
2019-01-19T10:32:45.765Z,41.47
2019-01-19T10:35:14.897Z,39.18
2019-01-19T10:37:43.982Z,40.43
2019-01-19T10:40:13.385Z,41.02
2019-01-19T10:42:42.478Z,40.85
2019-01-19T10:45:14.383Z,35.77
2019-01-19T10:47:43.507Z,34.10
2019-01-19T10:50:14.302Z,32.22
2019-01-19T10:52:43.610Z,33.29
2019-01-19T10:55:13.988Z,32.57
2019-01-19T10:57:43.083Z,32.81
2019-01-19T11:00:15.684Z,29.31
2019-01-19T11:02:44.780Z,26.97
2019-01-19T11:05:14.250Z,28.03
2019-01-19T11:07:45.046Z,29.56
2019-01-19T11:10:16.859Z,32.15
2019-01-19T11:12:46.014Z,32.26
2019-01-19T11:15:16.016Z,33.25
2019-01-19T11:17:45.213Z,29.67
2019-01-19T11:20:17.015Z,29.78
2019-01-19T11:22:46.119Z,30.48
2019-01-19T11:25:15.212Z,26.05
2019-01-19T11:27:44.329Z,26.70
2019-01-19T11:30:16.327Z,26.64
2019-01-19T11:32:45.432Z,26.25
2019-01-19T11:35:15.266Z,26.68
2019-01-19T11:37:44.372Z,27.02
2019-01-19T11:40:18.940Z,24.56
2019-01-19T11:42:48.272Z,25.21
2019-01-19T11:45:19.315Z,27.58
2019-01-19T11:47:48.443Z,28.26
2019-01-19T11:50:17.532Z,25.43
2019-01-19T11:52:46.780Z,24.72
2019-01-19T11:55:18.839Z,25.84
2019-01-19T11:57:49.267Z,28.35
2019-01-19T12:00:20.273Z,31.52
2019-01-19T12:02:49.371Z,32.13
2019-01-19T12:05:18.466Z,32.69
2019-01-19T12:07:47.675Z,30.67
2019-01-19T12:10:19.109Z,30.35
2019-01-19T12:12:48.218Z,33.54
2019-01-19T12:15:17.406Z,34.17
2019-01-19T12:17:46.814Z,38.37
2019-01-19T12:20:18.597Z,37.91
2019-01-19T12:22:47.696Z,38.99
2019-01-19T12:25:18.023Z,35.63
2019-01-19T12:27:47.104Z,30.60
2019-01-19T12:30:18.989Z,29.79
2019-01-19T12:32:48.071Z,30.35
2019-01-19T12:35:17.361Z,29.97
2019-01-19T12:37:46.435Z,31.78
2019-01-19T12:40:16.931Z,32.67
2019-01-19T12:42:46.999Z,33.94
2019-01-19T12:45:19.582Z,33.39
2019-01-19T12:47:48.682Z,33.35
2019-01-19T12:50:20.080Z,37.24
2019-01-19T12:52:49.149Z,38.08
2019-01-19T12:55:18.278Z,38.10
2019-01-19T12:57:47.353Z,36.88
2019-01-19T13:00:24.534Z,38.44
2019-01-19T13:02:53.837Z,36.47
2019-01-19T13:06:03.866Z,34.68
2019-01-19T13:08:34.565Z,30.16
2019-01-19T13:11:09.992Z,26.28
2019-01-19T13:13:44.189Z,26.04
2019-01-19T13:16:49.907Z,24.57
2019-01-19T13:19:30.890Z,24.67
2019-01-19T13:22:32.696Z,25.07
2019-01-19T13:25:23.555Z,24.24
2019-01-19T13:28:35.069Z,25.99
2019-01-19T13:31:48.000Z,26.68
2019-01-19T13:34:39.211Z,25.28
2019-01-19T13:37:43.609Z,25.41
2019-01-19T13:40:59.990Z,28.38
2019-01-19T13:44:31.056Z,34.55
2019-01-19T13:47:29.932Z,30.96
2019-01-19T13:50:52.151Z,30.31
2019-01-19T13:53:56.529Z,33.19
2019-01-19T13:56:47.545Z,32.06
2019-01-19T13:59:46.901Z,33.03
2019-01-19T14:02:48.316Z,32.39
2019-01-19T14:05:33.900Z,36.34
2019-01-19T14:08:25.661Z,34.39
2019-01-19T14:11:34.677Z,37.27
2019-01-19T14:14:28.303Z,37.77
2019-01-19T14:17:22.186Z,36.95
2019-01-19T14:20:32.394Z,36.88
2019-01-19T14:23:49.586Z,38.18
2019-01-19T14:26:48.059Z,41.32
2019-01-19T14:29:58.962Z,42.66
2019-01-19T14:32:56.642Z,45.04
2019-01-19T14:36:07.334Z,45.45
2019-01-19T14:39:19.009Z,45.89
2019-01-19T14:42:32.374Z,46.22
2019-01-19T14:45:32.866Z,44.77
2019-01-19T14:48:19.118Z,41.83
2019-01-19T14:51:13.614Z,36.12
2019-01-19T14:54:20.415Z,34.74
2019-01-19T14:57:30.034Z,34.78
2019-01-19T15:00:44.756Z,32.01
2019-01-19T15:04:02.630Z,33.88
2019-01-19T15:07:12.842Z,35.54
2019-01-19T15:10:25.886Z,37.31
2019-01-19T15:13:30.237Z,37.93
2019-01-19T15:16:49.379Z,38.27
2019-01-19T15:19:53.688Z,40.36
2019-01-19T15:22:52.200Z,43.11
2019-01-19T15:26:00.667Z,45.90
2019-01-19T15:29:06.376Z,46.73
2019-01-19T15:32:17.789Z,48.90
2019-01-19T15:35:38.733Z,52.20
2019-01-19T15:38:49.268Z,54.33
2019-01-19T15:42:05.186Z,55.72
2019-01-19T15:48:25.880Z,58.96
2019-01-19T15:51:34.789Z,60.34
2019-01-19T15:54:39.023Z,61.84
2019-01-19T15:57:33.575Z,62.70
2019-01-19T16:00:29.630Z,64.24
2019-01-19T16:03:23.418Z,64.87
2019-01-19T16:06:29.620Z,64.21
2019-01-19T16:09:32.428Z,64.90
2019-01-19T16:12:32.504Z,65.20
2019-01-19T16:15:39.046Z,65.19
2019-01-19T16:18:44.727Z,66.55
2019-01-19T16:21:34.536Z,66.96
2019-01-19T16:24:21.947Z,67.43
2019-01-19T16:27:38.203Z,66.46
2019-01-19T16:30:40.647Z,67.16
2019-01-19T16:33:44.882Z,67.99
2019-01-19T16:36:46.579Z,68.81
2019-01-19T16:39:40.842Z,69.65
2019-01-19T16:42:46.495Z,71.12
2019-01-19T16:45:40.642Z,71.33
2019-01-19T16:48:49.632Z,72.02
2019-01-19T16:51:55.550Z,72.59
2019-01-19T16:54:50.579Z,72.96
2019-01-19T16:57:53.223Z,73.76
2019-01-19T17:01:04.419Z,74.39
2019-01-19T17:04:12.241Z,74.37
2019-01-19T17:07:16.929Z,73.67
2019-01-19T17:10:17.228Z,74.36
2019-01-19T17:13:26.223Z,73.80
2019-01-19T17:17:03.219Z,74.47
2019-01-19T17:20:09.622Z,75.36
2019-01-19T17:23:22.366Z,76.06
2019-01-19T17:26:12.559Z,77.17
2019-01-19T17:29:17.144Z,77.18
2019-01-19T17:32:17.865Z,78.09
2019-01-19T17:35:29.172Z,77.15
2019-01-19T17:38:17.418Z,76.83
2019-01-19T17:41:13.932Z,77.37
2019-01-19T17:43:55.946Z,77.55
2019-01-19T17:46:57.511Z,77.70
2019-01-19T17:49:56.908Z,78.04
2019-01-19T17:52:53.576Z,78.51
2019-01-19T17:55:50.414Z,79.66
2019-01-19T17:59:06.382Z,79.09
2019-01-19T18:01:47.906Z,79.81
2019-01-19T18:04:34.135Z,80.15
2019-01-19T18:07:32.894Z,80.26
2019-01-19T18:10:51.838Z,80.67
2019-01-19T18:14:21.803Z,81.22
2019-01-19T18:17:40.986Z,81.78
2019-01-19T18:20:54.937Z,82.25
2019-01-19T18:23:54.327Z,81.93
2019-01-19T18:26:51.065Z,81.88
2019-01-19T18:30:16.394Z,82.30
2019-01-19T18:33:09.692Z,82.18
2019-01-19T18:36:05.515Z,81.14
2019-01-19T18:39:01.488Z,81.64
2019-01-19T18:42:10.113Z,81.41
2019-01-19T18:45:24.336Z,81.12
2019-01-19T18:48:24.964Z,81.06
2019-01-19T18:51:25.233Z,80.73
2019-01-19T18:54:23.489Z,80.41
2019-01-19T18:57:35.408Z,80.62
2019-01-19T19:00:41.863Z,80.55
2019-01-19T19:03:45.300Z,80.71
2019-01-19T19:06:46.995Z,80.33
2019-01-19T19:09:45.243Z,81.28
2019-01-19T19:12:50.734Z,80.99
2019-01-19T19:16:00.970Z,80.88
2019-01-19T19:18:59.710Z,81.47
2019-01-19T19:22:00.744Z,81.50
2019-01-19T19:25:01.060Z,81.20
2019-01-19T19:28:10.200Z,81.41
2019-01-19T19:31:13.777Z,81.99
2019-01-19T19:34:35.876Z,82.38
2019-01-19T19:37:32.187Z,81.39
2019-01-19T19:40:35.023Z,81.54
2019-01-19T19:43:33.586Z,80.96
2019-01-19T19:46:36.921Z,81.59
2019-01-19T19:52:01.677Z,80.74
2019-01-19T19:54:31.584Z,80.60
2019-01-19T19:57:01.042Z,80.92
2019-01-19T19:59:30.166Z,81.11
2019-01-19T20:01:59.331Z,81.49
2019-01-19T20:04:28.593Z,81.88
2019-01-19T20:06:58.719Z,82.21
2019-01-19T20:09:27.829Z,82.92
2019-01-19T20:12:01.465Z,83.01
2019-01-19T20:14:30.752Z,83.60
2019-01-19T20:16:59.852Z,83.76
2019-01-19T20:19:28.987Z,84.52
2019-01-19T20:21:58.074Z,85.12
2019-01-19T20:24:27.219Z,85.18
2019-01-19T20:26:56.304Z,85.34
2019-01-19T20:29:25.405Z,85.67
2019-01-19T20:31:54.520Z,85.31
2019-01-19T20:34:24.502Z,85.48
2019-01-19T20:36:53.583Z,85.65
2019-01-19T20:39:22.709Z,85.85
2019-01-19T20:41:51.798Z,86.89
2019-01-19T20:44:20.941Z,87.02
2019-01-19T20:46:50.064Z,87.42
2019-01-19T20:49:19.172Z,88.12
2019-01-19T20:51:48.259Z,88.23
2019-01-19T20:54:17.695Z,88.51
2019-01-19T20:56:46.814Z,88.93
2019-01-19T20:59:15.920Z,89.21
2019-01-19T21:01:45.028Z,89.19
2019-01-19T21:04:15.829Z,88.95
2019-01-19T21:06:44.967Z,89.21
2019-01-19T21:09:14.057Z,88.93
2019-01-19T21:11:43.185Z,89.21
2019-01-19T21:14:12.274Z,89.47
2019-01-19T21:16:41.384Z,89.60
2019-01-19T21:19:10.496Z,89.99
2019-01-19T21:21:40.530Z,90.21
2019-01-19T21:24:09.634Z,90.47
2019-01-19T21:26:38.758Z,90.39
2019-01-19T21:29:07.855Z,90.48
2019-01-19T21:31:36.968Z,90.55
2019-01-19T21:34:06.053Z,90.57
2019-01-19T21:36:35.206Z,90.67
2019-01-19T21:39:07.867Z,91.09
2019-01-19T21:41:37.386Z,91.28
2019-01-19T21:44:07.278Z,91.22
2019-01-19T21:46:37.217Z,91.16
2019-01-19T21:49:07.452Z,91.31
2019-01-19T21:51:37.358Z,91.90
2019-01-19T21:54:07.340Z,91.79
2019-01-19T21:56:36.803Z,92.32
2019-01-19T21:59:06.453Z,92.71
2019-01-19T22:01:36.509Z,93.08
2019-01-19T22:04:06.600Z,93.20
2019-01-19T22:06:36.542Z,92.76
2019-01-19T22:09:08.296Z,93.03
2019-01-19T22:11:40.864Z,93.48
2019-01-19T22:14:10.918Z,93.92
2019-01-19T22:16:40.895Z,94.07
2019-01-19T22:19:10.633Z,94.08
2019-01-19T22:21:40.858Z,94.46
2019-01-19T22:24:09.967Z,94.39
2019-01-19T22:26:40.763Z,94.09
2019-01-19T22:29:10.771Z,93.68
2019-01-19T22:31:41.090Z,93.33
2019-01-19T22:34:11.117Z,93.63
2019-01-19T22:36:41.078Z,93.65
2019-01-19T22:39:10.249Z,93.59
2019-01-19T22:41:39.340Z,93.93
2019-01-19T22:44:08.440Z,94.10
2019-01-19T22:46:37.533Z,94.34
2019-01-19T22:49:06.729Z,94.23
2019-01-19T22:51:35.829Z,94.12
2019-01-19T22:54:04.953Z,94.15
2019-01-19T22:56:34.033Z,94.30
2019-01-19T22:59:03.150Z,94.28
2019-01-19T23:01:45.204Z,94.37
2019-01-19T23:04:14.323Z,94.62
2019-01-19T23:06:43.405Z,94.79
2019-01-19T23:09:13.019Z,94.74
2019-01-19T23:11:42.110Z,94.71
2019-01-19T23:14:14.589Z,94.56
2019-01-19T23:16:43.673Z,94.16
2019-01-19T23:19:12.797Z,94.55
2019-01-19T23:21:41.877Z,94.99
2019-01-19T23:24:10.996Z,95.02
2019-01-19T23:26:40.271Z,94.87
2019-01-19T23:29:09.380Z,94.76
2019-01-19T23:31:38.465Z,94.60
2019-01-19T23:34:07.577Z,94.85
2019-01-19T23:36:36.667Z,95.07
2019-01-19T23:39:09.038Z,95.33
2019-01-19T23:41:38.123Z,95.31
2019-01-19T23:44:07.236Z,95.26
2019-01-19T23:46:36.318Z,95.34
2019-01-19T23:49:05.560Z,95.31
2019-01-19T23:51:34.657Z,95.31
2019-01-19T23:54:03.949Z,95.25
2019-01-19T23:56:33.052Z,95.03
2019-01-19T23:59:02.152Z,95.38
